createdAt,value
2023-12-17T00:02:10.421Z,7.10
2023-12-17T00:05:03.965Z,6.50
2023-12-17T00:07:32.172Z,6.47
2023-12-17T00:10:08.818Z,6.43
2023-12-17T00:12:37.044Z,7.05
2023-12-17T00:15:05.737Z,6.78
2023-12-17T00:17:34.564Z,6.97
2023-12-17T00:20:03.172Z,7.35
2023-12-17T00:22:31.903Z,7.20
2023-12-17T00:25:00.406Z,5.55
2023-12-17T00:27:31.376Z,6.82
2023-12-17T00:30:00.705Z,6.88
2023-12-17T00:32:42.493Z,7.15
2023-12-17T00:35:10.889Z,7.38
2023-12-17T00:37:39.325Z,6.63
2023-12-17T00:40:09.036Z,5.75
2023-12-17T00:42:38.679Z,5.78
2023-12-17T00:45:07.912Z,6.65
2023-12-17T00:47:36.477Z,6.38
2023-12-17T00:50:05.508Z,6.10
2023-12-17T00:52:34.726Z,6.80
2023-12-17T00:55:03.137Z,5.72
2023-12-17T00:57:31.516Z,6.03
2023-12-17T01:00:01.299Z,6.20
2023-12-17T01:02:29.592Z,5.43
2023-12-17T01:05:48.915Z,6.80
2023-12-17T01:08:17.247Z,5.85
2023-12-17T01:10:47.444Z,6.05
2023-12-17T01:13:15.760Z,6.15
2023-12-17T01:15:45.488Z,6.07
2023-12-17T01:19:30.613Z,6.47
2023-12-17T01:22:49.824Z,4.93
2023-12-17T01:25:18.187Z,5.68
2023-12-17T01:27:46.589Z,6.65
2023-12-17T01:30:15.225Z,5.80
2023-12-17T01:32:45.156Z,5.68
2023-12-17T01:35:13.521Z,5.55
2023-12-17T01:37:42.006Z,5.28
2023-12-17T01:40:11.216Z,5.57
2023-12-17T01:42:39.423Z,6.07
2023-12-17T01:45:08.579Z,5.75
2023-12-17T01:47:37.429Z,5.55
2023-12-17T01:50:08.962Z,5.88
2023-12-17T01:52:37.627Z,6.22
2023-12-17T01:55:07.029Z,5.65
2023-12-17T01:57:35.359Z,5.80
2023-12-17T02:00:04.688Z,5.40
2023-12-17T02:02:33.968Z,4.88
2023-12-17T02:05:03.806Z,5.22
2023-12-17T02:07:33.998Z,5.03
2023-12-17T02:14:08.716Z,5.22
2023-12-17T02:16:36.910Z,6.03
2023-12-17T02:19:05.320Z,5.07
2023-12-17T02:21:33.642Z,5.28
2023-12-17T02:24:04.418Z,5.28
2023-12-17T02:26:33.667Z,5.18
2023-12-17T02:29:01.842Z,4.22
2023-12-17T02:31:30.087Z,4.53
2023-12-17T02:33:58.424Z,4.70
2023-12-17T02:36:26.807Z,4.28
2023-12-17T02:38:56.092Z,4.57
2023-12-17T02:41:25.704Z,4.80
2023-12-17T02:43:53.933Z,4.68
2023-12-17T02:46:22.319Z,5.15
2023-12-17T02:48:50.610Z,3.78
2023-12-17T02:51:19.008Z,4.72
2023-12-17T02:53:47.356Z,5.10
2023-12-17T02:56:15.602Z,4.20
2023-12-17T02:58:45.179Z,4.43
2023-12-17T03:01:13.504Z,5.20
2023-12-17T03:03:41.875Z,4.40
2023-12-17T03:06:10.186Z,4.30
2023-12-17T03:08:48.865Z,4.88
2023-12-17T03:11:17.258Z,4.55
2023-12-17T03:13:46.782Z,4.35
2023-12-17T03:16:15.046Z,4.70
2023-12-17T03:18:43.337Z,4.53
2023-12-17T03:25:46.210Z,4.35
2023-12-17T03:28:14.480Z,4.00
2023-12-17T03:30:44.156Z,4.47
2023-12-17T03:33:16.399Z,4.38
2023-12-17T03:35:44.996Z,4.38
2023-12-17T03:38:13.261Z,4.28
2023-12-17T03:40:41.810Z,4.15
2023-12-17T03:43:10.275Z,3.60
2023-12-17T03:45:42.256Z,4.18
2023-12-17T03:48:14.599Z,3.80
2023-12-17T03:50:43.178Z,4.20
2023-12-17T03:53:12.123Z,3.63
2023-12-17T03:55:40.538Z,3.67
2023-12-17T03:58:08.776Z,3.05
2023-12-17T04:00:38.176Z,3.42
2023-12-17T04:03:06.553Z,3.30
2023-12-17T04:06:06.234Z,3.70
2023-12-17T04:11:51.159Z,2.95
2023-12-17T04:14:19.360Z,4.07
2023-12-17T04:16:47.596Z,3.58
2023-12-17T04:24:08.109Z,3.67
2023-12-17T04:27:31.665Z,3.80
2023-12-17T04:29:59.935Z,4.55
2023-12-17T04:37:11.981Z,3.50
2023-12-17T04:39:41.578Z,4.10
2023-12-17T04:42:13.932Z,4.10
2023-12-17T04:44:42.327Z,4.15
2023-12-17T04:50:56.501Z,4.47
2023-12-17T04:53:24.843Z,4.85
2023-12-17T04:55:54.450Z,5.43
2023-12-17T04:58:22.849Z,4.55
2023-12-17T05:02:10.370Z,5.82
2023-12-17T05:04:38.630Z,5.47
2023-12-17T05:07:06.832Z,4.78
2023-12-17T05:17:33.942Z,5.28
2023-12-17T05:20:02.314Z,4.47
2023-12-17T05:22:30.699Z,4.95
2023-12-17T05:32:34.597Z,4.72
2023-12-17T05:35:03.175Z,4.80
2023-12-17T05:37:31.273Z,4.78
2023-12-17T05:39:59.527Z,5.38
2023-12-17T05:42:27.877Z,5.18
2023-12-17T05:45:24.844Z,4.97
2023-12-17T05:52:54.201Z,4.88
2023-12-17T05:55:22.588Z,5.05
2023-12-17T05:57:51.421Z,4.88
2023-12-17T06:00:46.786Z,4.85
2023-12-17T06:03:15.173Z,4.28
2023-12-17T06:05:43.734Z,3.97
2023-12-17T06:12:24.410Z,4.53
2023-12-17T06:14:54.081Z,4.50
2023-12-17T06:17:22.307Z,5.13
2023-12-17T06:20:20.803Z,5.18
2023-12-17T06:22:50.574Z,5.40
2023-12-17T06:25:22.285Z,5.22
2023-12-17T06:27:51.112Z,4.60
2023-12-17T06:30:21.256Z,5.13
2023-12-17T06:32:49.774Z,5.68
2023-12-17T06:35:18.057Z,5.43
2023-12-17T06:37:46.240Z,5.65
2023-12-17T06:40:17.462Z,5.88
2023-12-17T06:42:46.119Z,5.55
2023-12-17T06:45:14.620Z,5.43
2023-12-17T06:47:44.597Z,6.75
2023-12-17T06:50:13.643Z,6.35
2023-12-17T06:57:34.009Z,5.28
2023-12-17T07:00:03.757Z,6.28
2023-12-17T07:02:33.471Z,5.90
2023-12-17T07:05:21.135Z,5.78
2023-12-17T07:09:03.415Z,5.60
2023-12-17T07:11:32.157Z,6.15
2023-12-17T07:14:00.310Z,5.95
2023-12-17T07:16:58.255Z,5.28
2023-12-17T07:19:28.075Z,6.15
2023-12-17T07:21:57.802Z,5.88
2023-12-17T07:24:27.508Z,6.22
2023-12-17T07:27:20.867Z,5.78
2023-12-17T07:29:49.622Z,6.20
2023-12-17T07:32:17.868Z,6.45
2023-12-17T07:34:46.837Z,6.00
2023-12-17T07:37:16.449Z,6.70
2023-12-17T07:39:44.712Z,5.60
2023-12-17T07:42:12.874Z,5.70
2023-12-17T07:44:42.188Z,6.05
2023-12-17T07:47:12.393Z,5.60
2023-12-17T07:49:40.755Z,5.85
2023-12-17T07:53:23.272Z,5.38
2023-12-17T07:55:59.285Z,5.30
2023-12-17T07:58:27.615Z,5.18
2023-12-17T08:00:55.963Z,5.43
2023-12-17T08:03:26.633Z,6.00
2023-12-17T08:09:08.259Z,5.90
2023-12-17T08:11:42.050Z,5.78
2023-12-17T08:15:02.155Z,5.57
2023-12-17T08:17:31.750Z,6.32
2023-12-17T08:20:00.033Z,5.78
2023-12-17T08:22:28.294Z,5.95
2023-12-17T08:24:56.497Z,6.18
2023-12-17T08:27:26.393Z,6.32
2023-12-17T08:29:54.771Z,5.28
2023-12-17T08:32:24.638Z,5.90
2023-12-17T08:36:12.343Z,5.60
2023-12-17T08:38:40.986Z,5.30
2023-12-17T08:41:09.211Z,5.60
2023-12-17T08:43:38.891Z,6.03
2023-12-17T08:46:07.736Z,5.35
2023-12-17T08:49:02.330Z,5.07
2023-12-17T08:51:31.000Z,5.32
2023-12-17T08:53:59.304Z,4.85
2023-12-17T08:56:27.555Z,5.05
2023-12-17T08:58:57.274Z,5.55
2023-12-17T09:01:25.539Z,5.20
2023-12-17T09:03:56.774Z,5.88
2023-12-17T09:06:25.477Z,5.30
2023-12-17T09:08:53.863Z,4.68
2023-12-17T09:11:22.379Z,4.70
2023-12-17T09:13:52.351Z,5.22
2023-12-17T09:16:22.451Z,5.05
2023-12-17T09:18:51.864Z,5.05
2023-12-17T09:21:20.515Z,4.28
2023-12-17T09:23:49.361Z,4.93
2023-12-17T09:26:17.711Z,4.90
2023-12-17T09:28:47.130Z,5.50
2023-12-17T09:31:15.683Z,5.22
2023-12-17T09:33:46.732Z,4.60
2023-12-17T09:36:15.311Z,4.45
2023-12-17T09:38:44.058Z,4.10
2023-12-17T09:41:12.424Z,4.00
2023-12-17T09:43:40.657Z,4.32
2023-12-17T09:46:12.157Z,4.20
2023-12-17T09:48:42.600Z,3.63
2023-12-17T09:51:15.017Z,4.47
2023-12-17T09:53:43.443Z,4.20
2023-12-17T09:56:13.329Z,3.83
2023-12-17T09:59:31.424Z,4.20
2023-12-17T10:01:59.830Z,4.43
2023-12-17T10:04:28.941Z,4.50
2023-12-17T10:07:12.829Z,4.07
2023-12-17T10:09:43.504Z,4.20
2023-12-17T10:12:11.889Z,4.03
2023-12-17T10:14:42.190Z,3.78
2023-12-17T10:17:39.269Z,3.80
2023-12-17T10:20:08.968Z,4.03
2023-12-17T10:22:37.498Z,4.03
2023-12-17T10:25:10.956Z,4.45
2023-12-17T10:27:39.669Z,4.22
2023-12-17T10:30:10.609Z,4.28
2023-12-17T10:32:44.766Z,4.35
2023-12-17T10:35:13.728Z,4.32
2023-12-17T10:37:42.925Z,4.85
2023-12-17T10:40:13.703Z,3.80
2023-12-17T10:42:44.422Z,4.38
2023-12-17T10:45:13.607Z,3.95
2023-12-17T10:47:42.433Z,3.95
2023-12-17T10:50:11.464Z,3.67
2023-12-17T10:52:40.986Z,4.07
2023-12-17T10:55:09.635Z,4.32
2023-12-17T10:57:41.321Z,3.88
2023-12-17T11:00:10.947Z,4.20
2023-12-17T11:02:39.817Z,3.97
2023-12-17T11:05:08.702Z,3.92
2023-12-17T11:07:38.726Z,4.15
2023-12-17T11:10:09.304Z,4.07
2023-12-17T11:12:37.554Z,4.10
2023-12-17T11:15:09.043Z,4.10
2023-12-17T11:17:43.030Z,4.00
2023-12-17T11:20:13.794Z,4.18
2023-12-17T11:22:42.018Z,3.72
2023-12-17T11:25:12.074Z,4.80
2023-12-17T11:27:41.393Z,4.47
2023-12-17T11:30:31.071Z,4.50
2023-12-17T11:33:00.889Z,4.07
2023-12-17T11:35:30.307Z,5.05
2023-12-17T11:37:59.027Z,4.78
2023-12-17T11:40:29.009Z,4.22
2023-12-17T11:43:00.467Z,5.07
2023-12-17T11:45:45.213Z,4.95
2023-12-17T11:48:17.347Z,4.03
2023-12-17T11:50:48.281Z,5.15
2023-12-17T11:53:17.169Z,5.00
2023-12-17T11:55:48.466Z,5.82
2023-12-17T11:58:21.351Z,5.10
2023-12-17T12:01:09.752Z,5.82
2023-12-17T12:03:39.631Z,5.78
2023-12-17T12:06:10.905Z,6.05
2023-12-17T12:08:41.092Z,5.72
2023-12-17T12:11:11.356Z,6.70
2023-12-17T12:13:42.558Z,6.68
2023-12-17T12:16:14.509Z,6.25
2023-12-17T12:18:43.387Z,6.60
2023-12-17T12:21:19.872Z,6.43
2023-12-17T12:23:53.943Z,6.72
2023-12-17T12:26:22.692Z,7.60
2023-12-17T12:28:58.257Z,6.63
2023-12-17T12:31:28.433Z,7.80
2023-12-17T12:33:59.592Z,7.03
2023-12-17T12:36:28.320Z,7.95
2023-12-17T12:39:17.363Z,8.68
2023-12-17T12:41:47.224Z,8.60
2023-12-17T12:44:16.477Z,8.82
2023-12-17T12:46:49.312Z,8.63
2023-12-17T12:49:19.477Z,9.10
2023-12-17T12:51:48.986Z,8.25
2023-12-17T12:54:17.681Z,8.40
2023-12-17T12:56:46.113Z,7.95
2023-12-17T12:59:22.914Z,8.60
2023-12-17T13:01:56.629Z,8.98
2023-12-17T13:04:25.091Z,7.15
2023-12-17T13:06:53.367Z,7.78
2023-12-17T13:09:22.345Z,7.45
2023-12-17T13:11:53.829Z,7.28
2023-12-17T13:14:22.155Z,7.03
2023-12-17T13:16:52.508Z,6.20
2023-12-17T13:19:24.416Z,6.47
2023-12-17T13:21:53.330Z,6.43
2023-12-17T13:24:24.359Z,6.20
2023-12-17T13:26:52.963Z,6.30
2023-12-17T13:29:21.449Z,5.93
2023-12-17T13:31:49.762Z,6.28
2023-12-17T13:34:20.929Z,5.47
2023-12-17T13:36:50.923Z,6.10
2023-12-17T13:39:19.275Z,5.80
2023-12-17T13:41:52.629Z,6.30
2023-12-17T13:44:27.835Z,5.72
2023-12-17T13:46:56.339Z,6.20
2023-12-17T13:49:25.074Z,5.07
2023-12-17T13:51:54.794Z,5.57
2023-12-17T13:54:23.886Z,5.65
2023-12-17T13:56:52.343Z,5.60
2023-12-17T13:59:20.712Z,5.88
2023-12-17T14:01:49.725Z,6.15
2023-12-17T14:04:18.218Z,4.82
2023-12-17T14:07:23.985Z,6.13
2023-12-17T14:09:56.135Z,5.45
2023-12-17T14:12:24.735Z,5.13
2023-12-17T14:14:53.112Z,5.63
2023-12-17T14:17:22.147Z,5.50
2023-12-17T14:19:50.669Z,5.53
2023-12-17T14:22:20.035Z,4.93
2023-12-17T14:24:49.491Z,4.72
2023-12-17T14:27:19.489Z,4.47
2023-12-17T14:29:48.068Z,4.70
2023-12-17T14:32:16.682Z,4.78
2023-12-17T14:34:45.232Z,4.57
2023-12-17T14:37:13.966Z,4.90
2023-12-17T14:39:42.443Z,4.53
2023-12-17T14:42:10.756Z,4.70
2023-12-17T14:44:40.505Z,4.20
2023-12-17T14:47:09.041Z,4.72
2023-12-17T14:49:37.610Z,4.90
2023-12-17T14:52:06.780Z,4.97
2023-12-17T14:54:35.570Z,4.53
2023-12-17T14:57:04.272Z,5.10
2023-12-17T14:59:37.987Z,4.32
2023-12-17T15:02:08.147Z,4.72
2023-12-17T15:04:37.041Z,4.40
2023-12-17T15:07:05.789Z,4.35
2023-12-17T15:09:34.194Z,4.43
2023-12-17T15:12:03.342Z,4.40
2023-12-17T15:14:31.686Z,4.55
2023-12-17T15:17:00.094Z,4.47
2023-12-17T15:19:29.772Z,5.00
2023-12-17T15:21:58.130Z,4.40
2023-12-17T15:24:26.487Z,4.60
2023-12-17T15:26:55.105Z,5.07
2023-12-17T15:29:24.047Z,4.70
2023-12-17T15:31:52.326Z,4.88
2023-12-17T15:34:20.593Z,4.65
2023-12-17T15:36:50.512Z,4.50
2023-12-17T15:39:18.979Z,4.60
2023-12-17T15:41:47.223Z,5.28
2023-12-17T15:44:19.745Z,5.32
2023-12-17T15:46:48.021Z,4.90
2023-12-17T15:49:17.350Z,5.22
2023-12-17T15:51:45.991Z,5.95
2023-12-17T15:54:15.748Z,5.40
2023-12-17T15:56:44.107Z,5.80
2023-12-17T15:59:13.877Z,5.88
2023-12-17T16:01:42.163Z,6.88
2023-12-17T16:04:11.011Z,5.75
2023-12-17T16:06:43.426Z,5.82
2023-12-17T16:09:11.857Z,5.80
2023-12-17T16:17:01.847Z,5.60
2023-12-17T16:19:30.271Z,5.97
2023-12-17T16:21:59.700Z,5.75
2023-12-17T16:24:28.137Z,6.38
2023-12-17T16:26:56.782Z,6.10
2023-12-17T16:29:25.342Z,6.97
2023-12-17T16:31:53.645Z,6.60
2023-12-17T16:34:23.310Z,6.80
2023-12-17T16:36:51.758Z,7.93
2023-12-17T16:39:20.938Z,6.25
2023-12-17T16:41:49.340Z,6.90
2023-12-17T16:44:17.711Z,6.40
2023-12-17T16:46:45.981Z,7.50
2023-12-17T16:49:14.327Z,7.38
2023-12-17T16:51:44.061Z,6.88
2023-12-17T16:54:12.406Z,7.10
2023-12-17T16:56:41.420Z,7.35
2023-12-17T16:59:09.751Z,6.93
2023-12-17T17:01:38.219Z,6.97
2023-12-17T17:04:06.837Z,7.60
2023-12-17T17:06:38.648Z,7.47
2023-12-17T17:09:10.664Z,7.95
2023-12-17T17:11:38.912Z,8.45
2023-12-17T17:14:07.769Z,7.78
2023-12-17T17:16:36.263Z,7.13
2023-12-17T17:19:04.816Z,8.18
2023-12-17T17:21:34.491Z,7.78
2023-12-17T17:24:02.907Z,7.75
2023-12-17T17:26:33.262Z,8.02
2023-12-17T17:29:01.921Z,8.18
2023-12-17T17:31:30.432Z,8.30
2023-12-17T17:33:58.977Z,6.88
2023-12-17T17:36:27.430Z,7.20
2023-12-17T17:38:56.766Z,7.80
2023-12-17T17:41:24.992Z,7.72
2023-12-17T17:43:55.452Z,8.32
2023-12-17T17:46:23.826Z,7.90
2023-12-17T17:48:52.399Z,7.95
2023-12-17T17:51:20.876Z,7.43
2023-12-17T17:53:51.190Z,7.90
2023-12-17T17:56:19.967Z,8.20
2023-12-17T17:58:48.269Z,7.70
2023-12-17T18:01:44.102Z,8.02
2023-12-17T18:04:12.501Z,7.95
2023-12-17T18:06:49.205Z,7.25
2023-12-17T18:09:17.892Z,7.63
2023-12-17T18:11:46.450Z,7.45
2023-12-17T18:14:14.718Z,6.80
2023-12-17T18:16:44.506Z,7.65
2023-12-17T18:19:12.859Z,6.50
2023-12-17T18:21:49.875Z,6.70
2023-12-17T18:24:18.215Z,6.88
2023-12-17T18:26:47.102Z,7.30
2023-12-17T18:29:15.458Z,6.75
2023-12-17T18:31:45.347Z,7.05
2023-12-17T18:34:14.353Z,8.23
2023-12-17T18:36:47.147Z,7.15
2023-12-17T18:39:15.324Z,7.25
2023-12-17T18:41:44.366Z,7.53
2023-12-17T18:44:12.673Z,7.25
2023-12-17T18:46:41.177Z,7.28
2023-12-17T18:49:11.970Z,7.43
2023-12-17T18:51:41.208Z,6.70
2023-12-17T18:54:09.598Z,7.25
2023-12-17T18:56:38.662Z,6.80
2023-12-17T18:59:07.017Z,7.15
2023-12-17T19:01:35.704Z,7.43
2023-12-17T19:04:07.681Z,7.43
2023-12-17T19:06:44.700Z,7.53
2023-12-17T19:09:12.958Z,7.38
2023-12-17T19:11:43.890Z,7.25
2023-12-17T19:14:14.703Z,6.88
2023-12-17T19:16:43.400Z,7.15
2023-12-17T19:19:13.578Z,6.55
2023-12-17T19:21:44.820Z,6.85
2023-12-17T19:24:18.803Z,7.85
2023-12-17T19:26:47.332Z,7.68
2023-12-17T19:29:15.769Z,6.93
2023-12-17T19:31:45.320Z,8.10
2023-12-17T19:34:13.780Z,7.80
2023-12-17T19:36:41.950Z,7.70
2023-12-17T19:39:11.828Z,7.28
2023-12-17T19:41:40.092Z,7.07
2023-12-17T19:44:08.411Z,8.05
2023-12-17T19:46:37.180Z,8.20
2023-12-17T19:49:08.262Z,7.82
2023-12-17T19:51:37.689Z,8.02
2023-12-17T19:54:37.056Z,7.75
2023-12-17T19:57:06.590Z,7.65
2023-12-17T19:59:36.184Z,7.10
2023-12-17T20:02:29.288Z,7.25
2023-12-17T20:04:57.605Z,7.82
2023-12-17T20:07:25.899Z,7.93
2023-12-17T20:09:55.676Z,7.28
2023-12-17T20:12:23.969Z,7.57
2023-12-17T20:14:52.373Z,7.90
2023-12-17T20:17:21.865Z,8.02
2023-12-17T20:19:50.172Z,7.63
2023-12-17T20:22:19.848Z,7.45
2023-12-17T20:24:48.051Z,7.78
2023-12-17T20:27:18.081Z,7.30
2023-12-17T20:29:46.494Z,6.88
2023-12-17T20:32:14.856Z,7.15
2023-12-17T20:34:43.170Z,6.30
2023-12-17T20:37:11.378Z,6.65
2023-12-17T20:40:54.763Z,6.38
2023-12-17T20:43:24.475Z,6.00
2023-12-17T20:45:52.740Z,5.82
2023-12-17T20:48:21.421Z,6.18
2023-12-17T20:50:49.693Z,5.65
2023-12-17T20:53:18.238Z,5.95
2023-12-17T20:55:46.529Z,6.13
2023-12-17T20:58:14.858Z,5.05
2023-12-17T21:00:44.738Z,5.63
2023-12-17T21:03:13.118Z,5.40
2023-12-17T21:05:41.485Z,5.68
2023-12-17T21:08:10.063Z,5.80
2023-12-17T21:10:38.237Z,5.13
2023-12-17T21:13:06.690Z,5.47
2023-12-17T21:15:35.380Z,6.25
2023-12-17T21:18:05.923Z,5.57
2023-12-17T21:20:34.497Z,5.63
2023-12-17T21:23:03.239Z,5.85
2023-12-17T21:25:31.575Z,5.68
2023-12-17T21:27:59.760Z,5.25
2023-12-17T21:30:28.041Z,5.38
2023-12-17T21:32:56.334Z,5.63
2023-12-17T21:35:25.948Z,4.93
2023-12-17T21:37:54.109Z,5.05
2023-12-17T21:40:22.373Z,5.97
2023-12-17T21:42:50.563Z,5.22
2023-12-17T21:45:18.788Z,5.03
2023-12-17T21:47:47.324Z,5.20
2023-12-17T21:50:15.726Z,5.30
2023-12-17T21:52:45.688Z,4.75
2023-12-17T21:55:14.907Z,4.82
2023-12-17T21:57:44.060Z,4.78
2023-12-17T22:00:17.233Z,4.13
2023-12-17T22:02:46.063Z,5.20
2023-12-17T22:05:14.602Z,4.68
2023-12-17T22:07:44.598Z,4.82
2023-12-17T22:10:16.613Z,4.80
2023-12-17T22:12:45.089Z,4.32
2023-12-17T22:15:13.488Z,4.97
2023-12-17T22:17:42.959Z,5.20
2023-12-17T22:20:12.053Z,5.00
2023-12-17T22:22:40.449Z,4.60
2023-12-17T22:25:09.575Z,4.55
2023-12-17T22:27:39.562Z,4.40
2023-12-17T22:30:09.326Z,3.95
2023-12-17T22:32:37.881Z,3.97
2023-12-17T22:35:06.889Z,4.40
2023-12-17T22:37:35.850Z,4.20
2023-12-17T22:40:04.380Z,4.18
2023-12-17T22:42:32.878Z,3.88
2023-12-17T22:45:02.522Z,4.05
2023-12-17T22:47:30.997Z,3.78
2023-12-17T22:49:59.306Z,5.30
2023-12-17T22:52:28.307Z,3.78
2023-12-17T22:54:56.490Z,4.05
2023-12-17T22:57:25.174Z,3.25
2023-12-17T22:59:53.563Z,4.05
2023-12-17T23:02:23.252Z,4.50
2023-12-17T23:04:51.617Z,4.38
2023-12-17T23:07:19.914Z,3.75
2023-12-17T23:09:48.202Z,3.08
2023-12-17T23:12:16.495Z,4.20
2023-12-17T23:14:44.877Z,3.58
2023-12-17T23:17:13.016Z,4.28
2023-12-17T23:19:42.885Z,4.07
2023-12-17T23:22:11.183Z,4.30
2023-12-17T23:24:39.818Z,3.92
2023-12-17T23:27:08.496Z,3.95
2023-12-17T23:29:36.693Z,3.95
2023-12-17T23:32:05.374Z,4.45
2023-12-17T23:34:33.673Z,3.53
2023-12-17T23:37:03.665Z,3.80
2023-12-17T23:39:31.930Z,4.00
2023-12-17T23:42:00.194Z,3.35
2023-12-17T23:44:28.680Z,3.25
2023-12-17T23:46:56.914Z,3.58
2023-12-17T23:49:25.544Z,3.65
2023-12-17T23:51:53.814Z,3.53
2023-12-17T23:54:23.630Z,3.70
2023-12-17T23:56:51.813Z,4.65
2023-12-17T23:59:19.950Z,4.10
